createdAt,value
2022-07-27T00:01:27.803Z,2.63
2022-07-27T00:03:55.343Z,2.60
2022-07-27T00:06:22.781Z,2.92
2022-07-27T00:08:50.289Z,3.20
2022-07-27T00:11:17.626Z,3.08
2022-07-27T00:13:45.939Z,3.45
2022-07-27T00:16:15.872Z,3.33
2022-07-27T00:18:44.521Z,3.15
2022-07-27T00:21:11.815Z,3.40
2022-07-27T00:23:39.195Z,3.92
2022-07-27T00:26:06.518Z,3.42
2022-07-27T00:28:34.013Z,3.55
2022-07-27T00:31:01.361Z,3.72
2022-07-27T00:33:28.747Z,3.78
2022-07-27T00:35:56.119Z,4.35
2022-07-27T00:38:23.470Z,4.30
2022-07-27T00:40:50.777Z,5.05
2022-07-27T00:43:21.181Z,4.78
2022-07-27T00:45:51.663Z,5.53
2022-07-27T00:48:19.114Z,6.13
2022-07-27T00:50:48.093Z,5.70
2022-07-27T00:53:16.808Z,5.85
2022-07-27T00:55:45.718Z,5.93
2022-07-27T00:58:13.353Z,6.18
2022-07-27T01:00:40.713Z,5.75
2022-07-27T01:03:09.082Z,7.50
2022-07-27T01:05:42.675Z,7.50
2022-07-27T01:08:12.659Z,7.80
2022-07-27T01:10:40.958Z,7.00
2022-07-27T01:13:12.903Z,8.07
2022-07-27T01:15:43.151Z,7.28
2022-07-27T01:21:35.410Z,6.55
2022-07-27T01:24:04.619Z,6.50
2022-07-27T01:26:34.948Z,7.15
2022-07-27T01:29:05.594Z,8.10
2022-07-27T01:31:33.722Z,8.35
2022-07-27T01:34:01.350Z,7.85
2022-07-27T01:36:28.872Z,8.73
2022-07-27T01:38:56.841Z,8.10
2022-07-27T01:41:24.791Z,8.73
2022-07-27T01:44:07.542Z,8.45
2022-07-27T01:46:36.834Z,9.27
2022-07-27T01:49:09.934Z,9.13
2022-07-27T01:52:02.264Z,8.82
2022-07-27T01:54:29.964Z,9.65
2022-07-27T01:57:03.762Z,9.43
2022-07-27T01:59:31.109Z,9.20
2022-07-27T02:01:58.540Z,9.55
2022-07-27T02:04:26.189Z,9.80
2022-07-27T02:10:01.584Z,8.07
2022-07-27T02:12:37.722Z,7.82
2022-07-27T02:15:14.714Z,7.32
2022-07-27T02:18:00.175Z,6.63
2022-07-27T02:20:37.499Z,6.75
2022-07-27T02:23:05.130Z,6.22
2022-07-27T02:28:17.233Z,5.13
2022-07-27T02:30:44.584Z,6.13
2022-07-27T02:33:36.560Z,5.30
2022-07-27T02:36:11.737Z,5.85
2022-07-27T02:38:39.320Z,5.72
2022-07-27T02:41:12.594Z,5.57
2022-07-27T02:43:40.081Z,5.82
2022-07-27T02:46:07.740Z,5.32
2022-07-27T02:48:35.612Z,5.22
2022-07-27T02:51:03.176Z,4.85
2022-07-27T02:53:31.663Z,5.22
2022-07-27T02:56:27.083Z,5.25
2022-07-27T02:58:55.516Z,5.47
2022-07-27T03:01:48.863Z,5.80
2022-07-27T03:04:17.720Z,5.82
2022-07-27T03:06:54.213Z,6.07
2022-07-27T03:09:33.408Z,6.07
2022-07-27T03:12:26.477Z,6.45
2022-07-27T03:15:20.269Z,6.13
2022-07-27T03:26:13.360Z,7.55
2022-07-27T03:28:43.410Z,6.53
2022-07-27T03:31:13.028Z,7.07
2022-07-27T03:33:40.785Z,7.13
2022-07-27T03:36:08.238Z,7.18
2022-07-27T03:39:07.841Z,6.88
2022-07-27T03:44:46.565Z,7.80
2022-07-27T03:47:13.971Z,7.30
2022-07-27T03:49:41.536Z,7.15
2022-07-27T03:52:11.946Z,7.32
2022-07-27T03:54:45.237Z,7.90
2022-07-27T03:57:14.952Z,7.22
2022-07-27T03:59:47.953Z,7.30
2022-07-27T04:02:15.935Z,7.00
2022-07-27T04:04:43.596Z,6.93
2022-07-27T04:07:12.928Z,6.63
2022-07-27T04:09:40.346Z,5.68
2022-07-27T04:12:09.973Z,5.43
2022-07-27T04:15:15.165Z,5.05
2022-07-27T04:17:54.877Z,4.47
2022-07-27T04:20:31.343Z,4.53
2022-07-27T04:23:06.441Z,4.72
2022-07-27T04:25:34.339Z,6.15
2022-07-27T04:28:01.732Z,7.10
2022-07-27T04:30:29.273Z,6.47
2022-07-27T04:32:56.680Z,6.68
2022-07-27T04:35:26.681Z,7.38
2022-07-27T04:37:59.097Z,7.53
2022-07-27T04:40:31.837Z,6.40
2022-07-27T04:43:01.337Z,7.03
2022-07-27T04:45:29.741Z,8.32
2022-07-27T04:47:57.189Z,9.05
2022-07-27T04:50:24.652Z,9.55
2022-07-27T04:52:52.076Z,9.27
2022-07-27T04:55:19.478Z,7.82
2022-07-27T04:57:46.962Z,8.57
2022-07-27T05:00:14.716Z,8.27
2022-07-27T05:02:42.322Z,8.70
2022-07-27T05:05:41.088Z,9.65
2022-07-27T05:08:39.833Z,9.25
2022-07-27T05:11:07.385Z,8.85
2022-07-27T05:13:37.794Z,8.85
2022-07-27T05:16:06.951Z,8.23
2022-07-27T05:18:37.888Z,8.15
2022-07-27T05:21:06.110Z,8.63
2022-07-27T05:23:34.210Z,8.05
2022-07-27T05:26:21.902Z,7.88
2022-07-27T05:28:49.420Z,7.97
2022-07-27T05:31:17.422Z,7.68
2022-07-27T05:33:48.782Z,8.27
2022-07-27T05:36:17.942Z,8.38
2022-07-27T05:38:45.411Z,7.15
2022-07-27T05:41:12.764Z,7.55
2022-07-27T05:43:40.217Z,7.80
2022-07-27T05:46:16.427Z,7.07
2022-07-27T05:48:44.041Z,6.57
2022-07-27T05:51:14.451Z,6.32
2022-07-27T05:53:41.896Z,5.97
2022-07-27T05:56:09.284Z,5.57
2022-07-27T05:58:39.757Z,5.60
2022-07-27T06:01:07.140Z,5.05
2022-07-27T06:03:34.524Z,5.53
2022-07-27T06:06:20.486Z,5.20
2022-07-27T06:08:48.042Z,5.20
2022-07-27T06:11:33.920Z,4.85
2022-07-27T06:14:20.332Z,5.05
2022-07-27T06:19:54.280Z,7.28
2022-07-27T06:22:22.047Z,7.53
2022-07-27T06:24:49.587Z,7.28
2022-07-27T06:27:16.959Z,6.10
2022-07-27T06:29:44.406Z,6.30
2022-07-27T06:32:11.836Z,6.13
2022-07-27T06:34:43.150Z,6.35
2022-07-27T06:37:10.792Z,6.38
2022-07-27T06:39:38.128Z,6.80
2022-07-27T06:42:05.501Z,6.22
2022-07-27T06:44:39.221Z,6.10
2022-07-27T06:55:52.503Z,6.25
2022-07-27T06:59:26.498Z,5.68
2022-07-27T07:02:20.945Z,6.50
2022-07-27T07:04:48.469Z,8.02
2022-07-27T07:07:15.842Z,8.50
2022-07-27T07:09:43.184Z,7.68
2022-07-27T07:12:10.520Z,7.45
2022-07-27T07:14:37.844Z,6.80
2022-07-27T07:17:05.178Z,6.32
2022-07-27T07:19:32.615Z,5.80
2022-07-27T07:22:00.000Z,5.80
2022-07-27T07:24:29.990Z,6.47
2022-07-27T07:26:57.321Z,6.10
2022-07-27T07:29:24.745Z,5.90
2022-07-27T07:31:52.052Z,6.30
2022-07-27T07:34:19.499Z,6.57
2022-07-27T07:36:47.792Z,6.57
2022-07-27T07:39:15.523Z,5.80
2022-07-27T07:41:43.103Z,8.23
2022-07-27T07:44:10.435Z,7.55
2022-07-27T07:46:37.772Z,7.72
2022-07-27T07:49:05.862Z,7.20
2022-07-27T07:51:33.278Z,6.38
2022-07-27T07:54:00.820Z,5.65
2022-07-27T07:56:28.116Z,5.35
2022-07-27T07:58:55.479Z,5.15
2022-07-27T08:01:25.304Z,5.30
2022-07-27T08:03:52.706Z,4.97
2022-07-27T08:06:19.936Z,5.32
2022-07-27T08:08:47.814Z,5.82
2022-07-27T08:11:15.156Z,5.55
2022-07-27T08:13:42.740Z,6.38
2022-07-27T08:16:10.191Z,5.60
2022-07-27T08:18:37.574Z,4.85
2022-07-27T08:21:04.804Z,4.53
2022-07-27T08:23:32.634Z,6.15
2022-07-27T08:26:05.574Z,5.20
2022-07-27T08:28:36.861Z,4.72
2022-07-27T08:31:13.852Z,4.80
2022-07-27T08:33:42.065Z,4.53
2022-07-27T08:36:09.383Z,4.32
2022-07-27T08:39:06.232Z,5.32
2022-07-27T08:41:33.651Z,5.22
2022-07-27T08:44:01.923Z,5.60
2022-07-27T08:46:32.923Z,5.15
2022-07-27T08:49:02.680Z,5.78
2022-07-27T08:51:29.963Z,5.50
2022-07-27T08:53:58.100Z,5.32
2022-07-27T08:56:25.378Z,5.20
2022-07-27T08:58:52.882Z,5.55
2022-07-27T09:01:20.425Z,6.05
2022-07-27T09:03:48.219Z,6.03
2022-07-27T09:06:42.494Z,5.53
2022-07-27T09:09:11.393Z,5.90
2022-07-27T09:11:39.302Z,5.30
2022-07-27T09:14:09.947Z,6.30
2022-07-27T09:17:21.858Z,6.38
2022-07-27T09:19:25.776Z,6.95
2022-07-27T09:21:53.269Z,5.30
2022-07-27T09:24:45.501Z,4.90
2022-07-27T09:27:10.663Z,4.47
2022-07-27T09:29:37.975Z,4.25
2022-07-27T09:32:15.999Z,4.07
2022-07-27T09:34:43.966Z,4.43
2022-07-27T09:37:13.277Z,5.35
2022-07-27T09:39:40.514Z,5.00
2022-07-27T09:42:59.347Z,5.55
2022-07-27T09:45:35.280Z,5.22
2022-07-27T09:48:21.286Z,5.40
2022-07-27T09:51:19.690Z,5.18
2022-07-27T09:53:50.357Z,5.57
2022-07-27T09:56:18.806Z,5.22
2022-07-27T09:58:51.838Z,5.78
2022-07-27T10:01:22.252Z,5.47
2022-07-27T10:03:53.546Z,4.95
2022-07-27T10:06:21.152Z,4.75
2022-07-27T10:08:54.205Z,7.40
2022-07-27T10:11:22.945Z,5.95
2022-07-27T10:13:52.090Z,3.50
2022-07-27T10:16:26.138Z,3.60
2022-07-27T10:19:08.481Z,2.92
2022-07-27T10:21:40.871Z,2.83
2022-07-27T10:24:26.988Z,3.50
2022-07-27T10:26:55.520Z,2.97
2022-07-27T10:29:23.921Z,2.88
2022-07-27T10:31:54.276Z,2.88
2022-07-27T10:34:42.537Z,2.85
2022-07-27T10:37:15.664Z,3.22
2022-07-27T10:39:51.492Z,4.25
2022-07-27T10:42:26.574Z,3.80
2022-07-27T10:47:28.992Z,3.47
2022-07-27T10:50:17.344Z,3.72
2022-07-27T10:52:45.801Z,3.80
2022-07-27T10:55:32.169Z,4.05
2022-07-27T10:58:45.414Z,3.50
2022-07-27T11:01:14.801Z,3.60
2022-07-27T11:03:49.445Z,3.53
2022-07-27T11:07:15.009Z,3.45
2022-07-27T11:12:29.996Z,3.83
2022-07-27T11:14:58.327Z,3.65
2022-07-27T11:24:12.362Z,3.40
2022-07-27T11:26:50.915Z,3.53
2022-07-27T11:29:20.621Z,3.25
2022-07-27T11:31:56.492Z,3.20
2022-07-27T11:34:33.430Z,3.55
2022-07-27T11:37:03.039Z,3.10
2022-07-27T11:42:21.647Z,3.08
2022-07-27T11:44:52.790Z,3.38
2022-07-27T11:47:21.610Z,2.70
2022-07-27T11:49:49.214Z,3.13
2022-07-27T11:52:18.380Z,2.72
2022-07-27T11:54:52.186Z,3.08
2022-07-27T11:57:32.091Z,2.85
2022-07-27T11:59:59.542Z,2.83
2022-07-27T12:02:27.284Z,2.53
2022-07-27T12:05:00.509Z,2.95
2022-07-27T12:07:33.155Z,2.85
2022-07-27T12:10:02.858Z,3.28
2022-07-27T12:12:34.879Z,3.08
2022-07-27T12:15:44.388Z,3.03
2022-07-27T12:18:00.639Z,2.88
2022-07-27T12:20:36.753Z,2.90
2022-07-27T12:23:11.454Z,3.30
2022-07-27T12:25:39.703Z,3.40
2022-07-27T12:28:13.363Z,2.67
2022-07-27T12:30:47.185Z,2.97
2022-07-27T12:33:37.688Z,2.85
2022-07-27T12:36:08.162Z,3.60
2022-07-27T12:38:43.361Z,3.40
2022-07-27T12:43:38.575Z,3.22
2022-07-27T12:46:13.580Z,3.35
2022-07-27T12:48:43.070Z,3.30
2022-07-27T12:51:11.159Z,3.58
2022-07-27T12:53:39.648Z,3.38
2022-07-27T12:56:09.948Z,3.10
2022-07-27T12:58:37.653Z,3.35
2022-07-27T13:01:13.261Z,3.13
2022-07-27T13:04:05.350Z,3.45
2022-07-27T13:06:33.701Z,3.08
2022-07-27T13:09:01.042Z,3.42
2022-07-27T13:11:28.330Z,3.85
2022-07-27T13:13:55.691Z,3.55
2022-07-27T13:16:23.061Z,3.25
2022-07-27T13:18:50.470Z,3.30
2022-07-27T13:21:18.264Z,3.40
2022-07-27T13:23:47.131Z,4.07
2022-07-27T13:26:14.624Z,3.10
2022-07-27T13:28:42.481Z,3.10
2022-07-27T13:31:10.746Z,3.15
2022-07-27T13:33:38.114Z,3.05
2022-07-27T13:36:07.218Z,3.80
2022-07-27T13:38:34.579Z,3.25
2022-07-27T13:41:02.315Z,3.10
2022-07-27T13:43:29.594Z,3.40
2022-07-27T13:45:56.945Z,3.55
2022-07-27T13:48:24.253Z,3.70
2022-07-27T13:50:51.991Z,2.80
2022-07-27T13:53:19.333Z,3.13
2022-07-27T13:55:46.882Z,3.55
2022-07-27T13:58:14.319Z,3.42
2022-07-27T14:00:42.116Z,3.45
2022-07-27T14:03:11.266Z,2.83
2022-07-27T14:08:25.499Z,3.58
2022-07-27T14:16:50.148Z,3.25
2022-07-27T14:19:19.953Z,3.50
2022-07-27T14:21:48.572Z,3.53
2022-07-27T14:24:15.885Z,3.35
2022-07-27T14:26:43.277Z,3.20
2022-07-27T14:29:10.897Z,3.40
2022-07-27T14:31:38.529Z,3.78
2022-07-27T14:34:05.878Z,3.00
2022-07-27T14:36:34.207Z,3.47
2022-07-27T14:39:01.664Z,3.50
2022-07-27T14:41:29.237Z,3.13
2022-07-27T14:43:56.943Z,3.70
2022-07-27T14:46:24.609Z,3.17
2022-07-27T14:51:43.436Z,3.40
2022-07-27T14:54:10.709Z,3.50
2022-07-27T14:56:38.059Z,3.40
2022-07-27T14:59:05.350Z,3.30
2022-07-27T15:01:32.753Z,3.38
2022-07-27T15:04:00.769Z,3.45
2022-07-27T15:06:28.155Z,3.60
2022-07-27T15:09:07.879Z,3.40
2022-07-27T15:15:20.899Z,3.70
2022-07-27T15:17:55.132Z,3.40
2022-07-27T15:20:23.002Z,3.17
2022-07-27T15:22:50.897Z,3.05
2022-07-27T15:25:18.287Z,3.30
2022-07-27T15:27:45.649Z,3.10
2022-07-27T15:30:13.107Z,3.22
2022-07-27T15:32:40.641Z,3.78
2022-07-27T15:35:08.249Z,3.80
2022-07-27T15:37:35.628Z,3.45
2022-07-27T15:40:23.581Z,3.30
2022-07-27T15:42:50.844Z,3.10
2022-07-27T15:45:18.840Z,3.45
2022-07-27T15:47:49.599Z,3.65
2022-07-27T15:50:21.241Z,3.80
2022-07-27T15:52:48.700Z,3.40
2022-07-27T15:55:16.568Z,3.60
2022-07-27T15:57:44.149Z,3.58
2022-07-27T16:00:12.425Z,3.53
2022-07-27T16:02:40.015Z,3.83
2022-07-27T16:05:07.719Z,3.67
2022-07-27T16:07:40.692Z,3.25
2022-07-27T16:10:09.799Z,4.15
2022-07-27T16:12:38.528Z,3.58
2022-07-27T16:15:06.743Z,3.88
2022-07-27T16:17:34.089Z,3.50
2022-07-27T16:20:01.361Z,3.42
2022-07-27T16:22:30.175Z,3.65
2022-07-27T16:24:57.565Z,3.55
2022-07-27T16:27:24.888Z,4.20
2022-07-27T16:29:52.160Z,4.10
2022-07-27T16:32:19.512Z,3.35
2022-07-27T16:34:46.989Z,3.90
2022-07-27T16:37:14.261Z,3.72
2022-07-27T16:39:41.548Z,3.80
2022-07-27T16:42:08.801Z,3.92
2022-07-27T16:44:38.680Z,3.92
2022-07-27T16:47:06.841Z,3.47
2022-07-27T16:49:36.601Z,3.50
2022-07-27T16:52:05.959Z,3.70
2022-07-27T16:54:39.046Z,3.25
2022-07-27T16:57:08.031Z,3.40
2022-07-27T16:59:35.534Z,3.10
2022-07-27T17:02:02.873Z,3.53
2022-07-27T17:04:30.657Z,3.42
2022-07-27T17:06:58.229Z,3.53
2022-07-27T17:09:26.162Z,3.58
2022-07-27T17:11:53.758Z,3.17
2022-07-27T17:14:21.902Z,3.30
2022-07-27T17:16:51.962Z,3.42
2022-07-27T17:19:20.063Z,3.22
2022-07-27T17:21:48.014Z,3.22
2022-07-27T17:24:16.016Z,3.47
2022-07-27T17:26:43.537Z,3.45
2022-07-27T17:29:35.928Z,3.58
2022-07-27T17:32:03.263Z,3.72
2022-07-27T17:34:30.522Z,3.40
2022-07-27T17:36:57.757Z,3.58
2022-07-27T17:39:25.306Z,3.33
2022-07-27T17:41:52.601Z,3.38
2022-07-27T17:44:20.086Z,3.40
2022-07-27T17:46:47.751Z,3.03
2022-07-27T17:49:15.718Z,3.33
2022-07-27T17:51:43.962Z,3.53
2022-07-27T17:54:11.254Z,3.20
2022-07-27T17:56:38.573Z,3.50
2022-07-27T17:59:34.604Z,3.75
2022-07-27T18:01:56.498Z,3.63
2022-07-27T18:04:24.338Z,3.92
2022-07-27T18:06:51.923Z,3.58
2022-07-27T18:09:19.619Z,3.60
2022-07-27T18:11:47.022Z,4.03
2022-07-27T18:14:14.399Z,3.20
2022-07-27T18:16:41.774Z,3.40
2022-07-27T18:19:09.242Z,3.50
2022-07-27T18:21:37.110Z,4.00
2022-07-27T18:24:04.571Z,2.97
2022-07-27T18:26:32.264Z,3.20
2022-07-27T18:29:00.101Z,3.10
2022-07-27T18:31:27.538Z,3.30
2022-07-27T18:33:55.930Z,3.13
2022-07-27T18:36:23.577Z,3.35
2022-07-27T18:38:51.182Z,3.40
2022-07-27T18:41:19.055Z,3.38
2022-07-27T18:43:53.128Z,3.42
2022-07-27T18:46:24.242Z,3.28
2022-07-27T18:48:51.679Z,3.00
2022-07-27T18:51:19.072Z,3.13
2022-07-27T18:53:46.515Z,3.58
2022-07-27T18:56:13.756Z,3.20
2022-07-27T18:58:41.232Z,3.67
2022-07-27T19:01:09.584Z,3.75
2022-07-27T19:03:40.598Z,3.67
2022-07-27T19:06:10.756Z,3.30
2022-07-27T19:08:41.368Z,3.50
2022-07-27T19:11:08.788Z,3.50
2022-07-27T19:13:36.166Z,3.70
2022-07-27T19:16:06.559Z,2.90
2022-07-27T19:18:34.073Z,3.60
2022-07-27T19:21:01.499Z,3.35
2022-07-27T19:23:28.871Z,3.83
2022-07-27T19:28:55.612Z,4.47
2022-07-27T19:31:24.977Z,3.75
2022-07-27T19:34:06.728Z,4.18
2022-07-27T19:36:37.441Z,4.10
2022-07-27T19:39:07.919Z,3.80
2022-07-27T19:41:36.260Z,4.78
2022-07-27T19:44:05.167Z,3.97
2022-07-27T19:46:32.763Z,3.95
2022-07-27T19:49:00.248Z,4.47
2022-07-27T19:51:27.528Z,3.47
2022-07-27T19:53:54.863Z,3.75
2022-07-27T19:56:22.324Z,3.53
2022-07-27T19:58:49.680Z,3.47
2022-07-27T20:01:17.529Z,3.50
2022-07-27T20:03:53.967Z,3.55
2022-07-27T20:06:26.220Z,3.83
2022-07-27T20:08:56.022Z,3.47
2022-07-27T20:11:23.589Z,3.72
2022-07-27T20:13:59.465Z,3.92
2022-07-27T20:16:31.100Z,3.25
2022-07-27T20:19:23.519Z,3.60
2022-07-27T20:21:50.783Z,3.15
2022-07-27T20:24:18.493Z,3.20
2022-07-27T20:26:49.064Z,3.47
2022-07-27T20:29:17.015Z,3.42
2022-07-27T20:31:44.491Z,3.47
2022-07-27T20:34:11.891Z,3.60
2022-07-27T20:36:39.164Z,3.55
2022-07-27T20:39:07.604Z,3.50
2022-07-27T20:41:35.673Z,3.20
2022-07-27T20:44:03.070Z,3.55
2022-07-27T20:46:34.071Z,3.58
2022-07-27T20:49:01.550Z,3.53
2022-07-27T20:51:28.852Z,3.35
2022-07-27T20:53:57.259Z,3.80
2022-07-27T20:56:24.499Z,3.30
2022-07-27T20:58:51.912Z,3.53
2022-07-27T21:01:19.391Z,3.97
2022-07-27T21:03:46.742Z,4.22
2022-07-27T21:06:17.035Z,3.47
2022-07-27T21:08:46.812Z,3.55
2022-07-27T21:11:14.897Z,4.75
2022-07-27T21:13:42.139Z,4.30
2022-07-27T21:16:09.476Z,3.70
2022-07-27T21:18:36.941Z,3.90
2022-07-27T21:21:04.351Z,3.85
2022-07-27T21:23:54.214Z,3.60
2022-07-27T21:26:21.619Z,3.60
2022-07-27T21:28:50.527Z,3.63
2022-07-27T21:31:18.573Z,3.88
2022-07-27T21:33:48.485Z,3.47
2022-07-27T21:36:16.125Z,4.05
2022-07-27T21:38:43.394Z,3.95
2022-07-27T21:41:10.731Z,4.10
2022-07-27T21:43:38.129Z,3.80
2022-07-27T21:46:05.526Z,4.07
2022-07-27T21:48:33.054Z,3.90
2022-07-27T21:51:00.437Z,3.63
2022-07-27T21:53:27.788Z,4.00
2022-07-27T21:55:55.229Z,3.80
2022-07-27T21:58:22.590Z,4.15
2022-07-27T22:00:53.907Z,3.67
2022-07-27T22:03:21.376Z,3.90
2022-07-27T22:05:48.977Z,5.18
2022-07-27T22:12:03.617Z,4.65
2022-07-27T22:14:30.896Z,4.18
2022-07-27T22:16:59.912Z,4.20
2022-07-27T22:19:27.442Z,4.18
2022-07-27T22:21:54.879Z,3.60
2022-07-27T22:24:22.328Z,3.53
2022-07-27T22:26:49.643Z,3.95
2022-07-27T22:29:16.970Z,4.00
2022-07-27T22:31:44.269Z,4.13
2022-07-27T22:34:12.010Z,3.95
2022-07-27T22:36:39.504Z,4.07
2022-07-27T22:39:07.314Z,4.05
2022-07-27T22:41:34.900Z,4.28
2022-07-27T22:44:12.096Z,3.92
2022-07-27T22:46:39.635Z,4.32
2022-07-27T22:49:07.473Z,3.95
2022-07-27T22:51:48.944Z,4.18
2022-07-27T22:54:20.391Z,3.80
2022-07-27T22:56:47.789Z,4.10
2022-07-27T22:59:15.104Z,4.00
2022-07-27T23:01:46.457Z,4.05
2022-07-27T23:04:16.541Z,3.83
2022-07-27T23:06:45.189Z,3.90
2022-07-27T23:09:12.922Z,3.70
2022-07-27T23:11:40.430Z,3.80
2022-07-27T23:14:10.323Z,3.67
2022-07-27T23:16:38.035Z,3.75
2022-07-27T23:19:05.497Z,3.80
2022-07-27T23:21:32.905Z,3.70
2022-07-27T23:24:00.730Z,3.80
2022-07-27T23:26:28.250Z,3.60
2022-07-27T23:28:56.221Z,3.83
2022-07-27T23:31:23.789Z,4.13
2022-07-27T23:33:51.385Z,3.97
2022-07-27T23:36:18.715Z,3.90
2022-07-27T23:38:46.389Z,3.35
2022-07-27T23:41:14.161Z,3.95
2022-07-27T23:43:41.385Z,3.65
2022-07-27T23:46:08.684Z,4.05
2022-07-27T23:48:36.159Z,3.90
2022-07-27T23:51:03.801Z,4.03
2022-07-27T23:53:31.132Z,3.50
2022-07-27T23:55:58.518Z,4.20
2022-07-27T23:58:25.943Z,3.45
